• Join FlightAware (Why Join?)
  • Login
  • US Flag 
07:43AM EDT


 

Airport Tracker/Info


-or-


 

Live Flight TrackerFlight Track Log ✈ UCA3599 ✈ 16-Sep-2013 ✈ KBGM - KIAD

Flight Track Log - Related Links

Times and Time Zones

All times are in EDT time to prevent confusion due to time zone crossing. See the UCA3599 flight status page for this flight to view local times or setup timezone preferences in your user account.

Time Position Orientation Groundspeed Altitude Reporting Facility
EDT Latitude Longitude Course Direction KTS MPH feet Rate Location/Type
06:07AM 42.1783 -75.9644 211° Southwest 258 297 3,100  Level New York Center
06:08AM 42.1436 -75.9953 213° Southwest 149 171 4,200 1,140 Climbing New York Center
06:09AM 42.1064 -76.0344 218° Southwest 160 184 5,400 1,320 Climbing New York Center
06:10AM 42.0650 -76.0758 217° Southwest 171 197 6,900 1,320 Climbing New York Center
06:11AM 42.0281 -76.1147 218° Southwest 186 214 8,100 1,320 Climbing New York Center
06:12AM 41.9800 -76.1611 216° Southwest 191 220 9,600 1,440 Climbing New York Center
06:13AM 41.8099 -76.1690 211° Southwest  Level Estimated
06:13AM 41.9389 -76.1994 215° Southwest 191 220 11,000  Level New York Center
06:14AM 41.8972 -76.2406 216° Southwest 191 220 12,400 1,260 Climbing New York Center
06:15AM 41.8644 -76.2742 217° Southwest 181 208 13,600 1,200 Climbing New York Center
06:16AM 41.8189 -76.3178 216° Southwest 181 208 14,900 1,200 Climbing New York Center
06:17AM 41.7794 -76.3561 216° Southwest 186 214 16,100 540 Climbing New York Center
06:18AM 41.7358 -76.3969 215° Southwest 191 220 16,000 -60 Descending New York Center
06:19AM 41.6903 -76.4403 215° Southwest 214 246 16,000  Level New York Center
06:20AM 41.6378 -76.4914 216° Southwest 225 259 16,000  Level New York Center
06:21AM 41.5811 -76.5447 215° Southwest 230 265 16,000  Level New York Center
06:22AM 41.5286 -76.5958 216° Southwest 230 265 16,000 -240 Level New York Center
06:23AM 41.4761 -76.6464 216° Southwest 230 265 15,600 -600 Descending New York Center
06:24AM 41.4169 -76.7022 215° Southwest 243 280 14,900 -720 Descending New York Center
06:25AM 41.3600 -76.7581 216° Southwest 255 293 14,200 -420 Descending New York Center
06:26AM 41.2897 -76.7906 199° South 261 300 14,100 -120 Descending New York Center
06:27AM 41.2225 -76.8011 187° South 271 312 14,000  Descending New York Center
06:28AM 41.1486 -76.8164 189° South 271 312 14,100  Climbing New York Center
06:29AM 41.0792 -76.8297 188° South 271 312 14,100  Level New York Center
06:30AM 41.0119 -76.8428 188° South 259 298 14,100  Level New York Center
06:31AM 40.9361 -76.8581 189° South 259 298 14,100  Level New York Center
06:32AM 40.8731 -76.8689 187° South 259 298 14,100  Level New York Center
06:33AM 40.7994 -76.8842 189° South 259 298 14,100  Level New York Center
06:34AM 40.7381 -76.9008 192° South 253 291 14,100 -60 Level New York Center
06:35AM 40.6658 -76.9244 194° South 253 291 14,000 -60 Descending New York Center
06:36AM 40.5981 -76.9456 193° South 248 285 14,000  Level New York Center
06:37AM 40.5344 -76.9672 195° South 242 278 14,000  Level New York Center
06:38AM 40.4689 -76.9858 192° South 247 284 14,000  Level New York Center
06:39AM 40.4011 -77.0072 194° South 247 284 14,000  Level New York Center
06:40AM 40.3353 -77.0283 194° South 247 284 14,000 -60 Level New York Center
06:41AM 40.2719 -77.0444 191° South 242 278 13,900 -780 Descending New York Center
06:43AM 40.1333 -77.0833 192° South 270 311 11,800 -1,080 Descending Potomac TRACON
06:44AM 40.0667 -77.1167 201° Southwest 269 310 10,900 -1,020 Descending Potomac TRACON
06:45AM 39.9833 -77.1333 189° South 263 303 9,800 -960 Descending Potomac TRACON
06:46AM 39.9167 -77.1500 191° South 260 299 9,000 -480 Descending Potomac TRACON
06:47AM 39.8500 -77.1667 191° South 243 280 9,000 -300 Level Potomac TRACON
06:48AM 39.7833 -77.2000 201° Southwest 245 282 8,500 -600 Descending Potomac TRACON
06:49AM 39.7333 -77.2167 194° South 249 287 7,900 -720 Descending Potomac TRACON
06:50AM 39.6833 -77.2500 207° Southwest 250 288 7,300 -540 Descending Potomac TRACON
06:51AM 39.6167 -77.2833 201° Southwest 224 258 7,000 -600 Descending Potomac TRACON
06:52AM 39.5667 -77.3167 207° Southwest 234 269 6,200 -840 Descending Potomac TRACON
06:53AM 39.5167 -77.3500 207° Southwest 241 277 5,400 -960 Descending Potomac TRACON
06:54AM 39.4500 -77.4000 210° Southwest 249 287 4,400 -780 Descending Potomac TRACON
06:55AM 39.4000 -77.4167 194° South 245 282 4,000 -240 Descending Potomac TRACON
06:56AM 39.3333 -77.4333 191° South 234 269 4,000  Level Potomac TRACON
06:57AM 39.2667 -77.4333 180° South 226 260 4,000  Level Potomac TRACON
06:58AM 39.2167 -77.4333 180° South 219 252 4,000 -60 Level Potomac TRACON
06:59AM 39.1500 -77.4333 180° South 215 247 3,900 -600 Descending Potomac TRACON
07:00AM 39.0833 -77.4333 180° South 204 235 2,800 -1,080 Descending Potomac TRACON
07:01AM 39.0333 -77.4333 180° South 184 212 1,900 -900 Descending Potomac TRACON
07:02AM 39.0000 -77.4333 180° South 140 161 1,100 -720 Descending Potomac TRACON
07:03AM 38.9667 -77.4333 180° South 113 130 600 -600 Descending Potomac TRACON